Port Hueneme, California
Current Conditions -  °F | °C
As of 9:51 PM on Tuesday 27 Jan 2015 (Local Time) from KOXR Reporting Station
Clear Clear  
Wind Chill: 57°   Ceiling: Unl
Heat Index: 57°   Visibility: 10mi
Dew Point: 49°   Wind: 5mph
Humidity: 74%   Direction: 60°ENE
Pressure: 30.17"   Gusts: NA
Location:  34.15°N, 119.19°W
Report Text: KOXR 280551Z AUTO 06004KT 10SM CLR 14/09 A3017 RMK AO2 SLP217 T01390094 10183 20133 57001
Loading
Personal Weather Stations






























Interactive Weather Map New forecast layout! Learn more

10-Day Weather Forecast

Advertisements
Track Severe Weather on mobile